Time;durP1;ratioP1;P1;durP2;ratioP2;P2;SDS_P1;SDS_P2;PMS_P1;PMS_P2;Temp;Humidity;BMP_temperature;BMP_pressure;BME280_temperature;BME280_humidity;BME280_pressure;Samples;Min_cycle;Max_cycle;Signal;HPM_P1;HPM_P2
2022/10/07 00:01:47;;;;;;;14.13;8.27;;;9.80;99.90;;;;;;4776228;30;20578;-84
2022/10/07 00:04:15;;;;;;;18.10;8.70;;;9.80;99.90;;;;;;4771494;29;20219;-84
2022/10/07 00:06:42;;;;;;;16.83;9.03;;;9.80;99.90;;;;;;4771484;30;20284;-83
2022/10/07 00:09:08;;;;;;;16.23;8.27;;;9.90;99.90;;;;;;4787364;29;20560;-83
2022/10/07 00:11:36;;;;;;;17.67;9.00;;;9.80;99.90;;;;;;4771687;30;20243;-79
2022/10/07 00:14:06;;;;;;;13.97;8.37;;;9.70;99.90;;;;;;4771447;30;20214;-79
2022/10/07 00:16:39;;;;;;;17.37;8.97;;;9.70;99.90;;;;;;4771203;30;20273;-77
2022/10/07 00:19:10;;;;;;;15.03;8.80;;;9.70;99.90;;;;;;4771469;30;20235;-82
2022/10/07 00:21:38;;;;;;;20.83;8.97;;;9.70;99.90;;;;;;4771345;30;20238;-81
2022/10/07 00:24:13;;;;;;;17.23;9.03;;;9.80;99.90;;;;;;4771871;30;20318;-81
2022/10/07 00:26:40;;;;;;;14.80;8.27;;;9.70;99.90;;;;;;4790885;29;20673;-82
2022/10/07 00:29:08;;;;;;;17.33;9.10;;;9.60;99.90;;;;;;4792026;30;20204;-84
2022/10/07 00:31:36;;;;;;;18.57;9.60;;;9.50;99.90;;;;;;4791141;30;20212;-81
2022/10/07 00:34:04;;;;;;;18.33;9.00;;;9.50;99.90;;;;;;4775079;30;20270;-84
2022/10/07 00:36:36;;;;;;;19.00;8.93;;;9.40;99.90;;;;;;4790624;30;20261;-84
2022/10/07 00:39:12;;;;;;;16.17;8.90;;;9.40;99.90;;;;;;4790483;30;20532;-85
2022/10/07 00:41:51;;;;;;;18.40;9.73;;;9.40;99.90;;;;;;4774605;30;20215;-84
2022/10/07 00:44:30;;;;;;;15.67;8.87;;;9.40;99.90;;;;;;4774707;30;20196;-84
2022/10/07 00:46:57;;;;;;;17.60;9.10;;;9.30;99.90;;;;;;4774672;30;20215;-84
2022/10/07 00:49:27;;;;;;;17.77;8.57;;;9.30;99.90;;;;;;4774127;30;20858;-82
2022/10/07 00:52:03;;;;;;;17.57;8.87;;;9.30;99.90;;;;;;4812714;24;20726;-81
2022/10/07 00:54:30;;;;;;;14.63;8.90;;;9.40;99.90;;;;;;4792047;29;20645;-81
2022/10/07 00:57:00;;;;;;;18.30;9.20;;;9.30;99.90;;;;;;4791834;29;20211;-84
2022/10/07 00:59:27;;;;;;;16.97;8.47;;;9.30;99.90;;;;;;4792436;29;20227;-82
2022/10/07 01:01:54;;;;;;;16.70;9.07;;;9.20;99.90;;;;;;4780004;30;20227;-81
2022/10/07 01:04:23;;;;;;;20.50;9.07;;;9.30;99.90;;;;;;4774022;30;20215;-83
2022/10/07 01:06:50;;;;;;;16.97;9.07;;;9.20;99.90;;;;;;4773964;30;20204;-80
2022/10/07 01:09:19;;;;;;;15.20;8.47;;;9.20;99.90;;;;;;4790321;29;20217;-78
2022/10/07 01:11:58;;;;;;;16.77;8.93;;;9.20;99.90;;;;;;4773169;30;20259;-80
2022/10/07 01:14:38;;;;;;;16.93;9.23;;;9.10;99.90;;;;;;4773692;30;20218;-84
2022/10/07 01:17:11;;;;;;;16.17;9.27;;;9.10;99.90;;;;;;4789869;30;20659;-84
2022/10/07 01:20:06;;;;;;;15.87;9.13;;;9.10;99.90;;;;;;4773964;30;20209;-81
2022/10/07 01:22:52;;;;;;;19.17;9.40;;;9.10;99.90;;;;;;4773814;30;20536;-80
2022/10/07 01:25:46;;;;;;;17.63;9.20;;;9.10;99.90;;;;;;4789627;30;20215;-78
2022/10/07 01:28:20;;;;;;;17.43;9.93;;;9.10;99.90;;;;;;4789665;30;20653;-80
2022/10/07 01:30:53;;;;;;;17.47;9.40;;;9.10;99.90;;;;;;4773746;30;20289;-84
2022/10/07 01:33:26;;;;;;;16.47;9.60;;;9.10;99.90;;;;;;4773411;30;20245;-84
2022/10/07 01:35:57;;;;;;;17.40;9.70;;;9.00;99.90;;;;;;4773159;30;20295;-84
2022/10/07 01:38:29;;;;;;;17.23;9.47;;;9.00;99.90;;;;;;4773540;30;20207;-81
2022/10/07 01:41:04;;;;;;;20.43;10.00;;;9.00;99.90;;;;;;4789935;30;20257;-84
2022/10/07 01:43:32;;;;;;;17.47;9.50;;;9.00;99.90;;;;;;4791343;24;20239;-84
2022/10/07 01:46:13;;;;;;;17.97;9.60;;;9.00;99.90;;;;;;4788605;30;20215;-84
2022/10/07 01:48:45;;;;;;;17.40;9.53;;;9.00;99.90;;;;;;4792775;24;20565;-84
2022/10/07 01:52:41;;;;;;;16.20;9.43;;;9.10;99.90;;;;;;4789215;30;20289;-84
2022/10/07 01:56:00;;;;;;;15.87;9.57;;;9.00;99.90;;;;;;4773039;30;20208;-84
2022/10/07 01:58:54;;;;;;;18.60;9.57;;;9.00;99.90;;;;;;4772826;30;20211;-84
2022/10/07 02:01:35;;;;;;;15.00;8.87;;;8.90;99.90;;;;;;4766803;30;20243;-84
2022/10/07 02:04:20;;;;;;;17.03;9.73;;;8.90;99.90;;;;;;4755191;30;20223;-83
2022/10/07 02:07:05;;;;;;;17.03;9.30;;;8.90;99.90;;;;;;4755338;30;20554;-84
2022/10/07 02:09:56;;;;;;;17.03;9.07;;;8.90;99.90;;;;;;4755637;30;20773;-81
2022/10/07 02:12:35;;;;;;;20.20;9.43;;;8.90;99.90;;;;;;4755173;30;20215;-82
2022/10/07 02:15:12;;;;;;;19.97;8.93;;;8.90;99.90;;;;;;4755032;30;20564;-83
2022/10/07 02:17:48;;;;;;;20.83;9.70;;;8.80;99.90;;;;;;4755056;30;20204;-83
2022/10/07 02:20:17;;;;;;;17.43;9.10;;;8.90;99.90;;;;;;4755460;30;20271;-78
2022/10/07 02:22:49;;;;;;;13.70;8.93;;;8.80;99.90;;;;;;4757481;30;20200;-77
2022/10/07 02:25:22;;;;;;;15.23;8.70;;;8.80;99.90;;;;;;4755031;30;20212;-77
2022/10/07 02:27:52;;;;;;;15.37;8.70;;;8.80;99.90;;;;;;4755056;30;20554;-83
2022/10/07 02:30:21;;;;;;;15.20;8.90;;;8.90;99.90;;;;;;4755542;30;20236;-76
2022/10/07 02:33:02;;;;;;;17.33;8.70;;;8.80;99.90;;;;;;4755502;30;20258;-82
2022/10/07 02:35:46;;;;;;;16.67;8.67;;;8.80;99.90;;;;;;4739863;30;20663;-80
2022/10/07 02:38:15;;;;;;;14.23;8.60;;;8.80;99.90;;;;;;4755199;30;20572;-80
2022/10/07 02:41:13;;;;;;;17.20;8.50;;;8.90;99.90;;;;;;4755053;30;20212;-84
2022/10/07 02:43:47;;;;;;;17.17;8.90;;;8.80;99.90;;;;;;4754440;30;20232;-83
2022/10/07 02:46:22;;;;;;;14.47;8.27;;;8.80;99.90;;;;;;4754269;30;20281;-81
2022/10/07 02:49:40;;;;;;;16.27;7.93;;;8.70;99.90;;;;;;5006216;24;20246;-80
2022/10/07 02:52:12;;;;;;;18.70;8.23;;;8.70;99.90;;;;;;4788736;29;20243;-82
2022/10/07 02:54:47;;;;;;;15.00;8.00;;;8.70;99.90;;;;;;4791502;29;20212;-82
2022/10/07 02:57:17;;;;;;;16.30;8.00;;;8.60;99.90;;;;;;4794060;30;20298;-83
2022/10/07 02:59:47;;;;;;;13.93;8.37;;;8.60;99.90;;;;;;4787245;30;20221;-84
2022/10/07 03:02:30;;;;;;;14.73;8.20;;;8.50;99.90;;;;;;4776323;29;20220;-85
2022/10/07 03:04:58;;;;;;;14.50;8.07;;;8.50;99.90;;;;;;4768983;30;20300;-83
2022/10/07 03:07:26;;;;;;;13.50;7.97;;;8.40;99.90;;;;;;4769098;30;20205;-85
2022/10/07 03:10:14;;;;;;;12.67;8.60;;;8.40;99.90;;;;;;4769040;30;20216;-85
2022/10/07 03:13:06;;;;;;;15.27;8.57;;;8.30;99.90;;;;;;4770512;30;20554;-84
2022/10/07 03:15:36;;;;;;;14.37;8.00;;;8.30;99.90;;;;;;4768937;30;20582;-85
2022/10/07 03:18:24;;;;;;;13.73;8.23;;;8.10;99.90;;;;;;4768934;30;20211;-82
2022/10/07 03:20:56;;;;;;;14.47;8.17;;;8.10;99.90;;;;;;4770042;30;20196;-80
2022/10/07 03:23:28;;;;;;;17.83;8.67;;;8.10;99.90;;;;;;4770528;30;20211;-83
2022/10/07 03:25:57;;;;;;;17.60;9.00;;;8.00;99.90;;;;;;4768667;30;20219;-83
2022/10/07 03:28:27;;;;;;;14.93;7.77;;;7.90;99.90;;;;;;4769774;30;20208;-85
2022/10/07 03:31:06;;;;;;;13.60;8.37;;;7.90;99.90;;;;;;4768943;30;20236;-83
2022/10/07 03:33:36;;;;;;;13.17;8.07;;;7.80;99.90;;;;;;4754289;30;20750;-81
2022/10/07 03:36:06;;;;;;;13.03;8.40;;;7.70;99.90;;;;;;4768990;30;20211;-80
2022/10/07 03:38:34;;;;;;;20.87;9.00;;;7.70;99.90;;;;;;4768772;30;20208;-76
2022/10/07 03:41:05;;;;;;;13.23;7.90;;;7.60;99.90;;;;;;4768722;30;20211;-80
2022/10/07 03:43:32;;;;;;;12.30;8.03;;;7.60;99.90;;;;;;4768543;30;20213;-84
2022/10/07 03:46:01;;;;;;;15.60;8.57;;;7.50;99.90;;;;;;4753925;30;20202;-83
2022/10/07 03:48:29;;;;;;;14.20;8.20;;;7.40;99.90;;;;;;4768341;30;20235;-79
2022/10/07 03:50:57;;;;;;;13.40;8.27;;;7.40;99.90;;;;;;4769050;30;20279;-85
2022/10/07 03:53:25;;;;;;;14.03;8.30;;;7.40;99.90;;;;;;4768682;30;20217;-85
2022/10/07 03:55:52;;;;;;;15.73;8.20;;;7.40;99.90;;;;;;4768662;30;20212;-85
2022/10/07 03:58:19;;;;;;;13.97;8.17;;;7.30;99.90;;;;;;4769851;30;20253;-82
2022/10/07 04:00:49;;;;;;;18.03;8.90;;;7.30;99.90;;;;;;4772084;30;20207;-85
2022/10/07 04:03:17;;;;;;;14.30;8.33;;;7.20;99.90;;;;;;4773232;30;20213;-84
2022/10/07 04:05:57;;;;;;;13.97;8.53;;;7.20;99.90;;;;;;4772114;30;20205;-85
2022/10/07 04:08:26;;;;;;;14.70;8.50;;;7.20;99.90;;;;;;4771965;30;20219;-84
2022/10/07 04:10:54;;;;;;;17.80;8.60;;;7.20;99.90;;;;;;4773411;30;20698;-80
2022/10/07 04:13:24;;;;;;;16.73;8.57;;;7.10;99.90;;;;;;4773449;30;20675;-80
2022/10/07 04:15:54;;;;;;;13.17;8.10;;;7.10;99.90;;;;;;4771848;30;20225;-85
2022/10/07 04:18:22;;;;;;;16.80;8.70;;;7.00;99.90;;;;;;4771879;30;20200;-85
2022/10/07 04:20:49;;;;;;;13.53;7.83;;;7.00;99.90;;;;;;4771934;30;20660;-84
2022/10/07 04:23:16;;;;;;;15.00;8.27;;;7.10;99.90;;;;;;4773031;30;20203;-86
2022/10/07 04:25:44;;;;;;;14.90;8.30;;;7.00;99.90;;;;;;4771561;30;20635;-82
2022/10/07 04:28:17;;;;;;;17.30;9.03;;;7.00;99.90;;;;;;4771656;30;20302;-84
2022/10/07 04:30:49;;;;;;;15.33;9.37;;;7.00;99.90;;;;;;4771567;30;20740;-82
2022/10/07 04:33:18;;;;;;;16.37;8.27;;;6.90;99.90;;;;;;4772059;30;20209;-84
2022/10/07 04:35:44;;;;;;;13.67;8.30;;;6.90;99.90;;;;;;4771641;30;20206;-81
2022/10/07 04:38:14;;;;;;;15.47;8.47;;;6.90;99.90;;;;;;4772068;30;20214;-84
2022/10/07 04:40:44;;;;;;;14.23;8.57;;;6.80;99.90;;;;;;4772546;30;20198;-83
2022/10/07 04:43:18;;;;;;;15.50;8.43;;;6.80;99.90;;;;;;4772480;30;20219;-82
2022/10/07 04:45:47;;;;;;;13.63;8.27;;;6.70;99.90;;;;;;4781457;30;20258;-79
2022/10/07 04:48:17;;;;;;;13.73;9.07;;;6.70;99.90;;;;;;4774991;30;20213;-81
2022/10/07 04:50:44;;;;;;;16.40;8.97;;;6.70;99.90;;;;;;4800489;29;20254;-84
2022/10/07 04:53:13;;;;;;;20.20;9.47;;;6.60;99.90;;;;;;4783532;30;20218;-84
2022/10/07 04:55:48;;;;;;;16.47;9.37;;;6.60;99.90;;;;;;4793472;29;20217;-84
2022/10/07 04:58:16;;;;;;;15.53;9.10;;;6.60;99.90;;;;;;4804430;24;20248;-86
2022/10/07 05:00:46;;;;;;;16.77;9.83;;;6.70;99.90;;;;;;4793533;29;20551;-85
2022/10/07 05:03:14;;;;;;;14.87;9.40;;;6.60;99.90;;;;;;4784947;29;20220;-85
2022/10/07 05:05:44;;;;;;;16.57;9.60;;;6.60;99.90;;;;;;4756578;30;20337;-85
2022/10/07 05:08:12;;;;;;;15.63;9.23;;;6.70;99.90;;;;;;4764076;30;20291;-83
2022/10/07 05:10:39;;;;;;;19.27;9.80;;;6.70;99.90;;;;;;4773487;30;20207;-78
2022/10/07 05:13:13;;;;;;;16.00;9.43;;;6.70;99.90;;;;;;4790270;30;20558;-81
2022/10/07 05:15:54;;;;;;;18.73;9.67;;;6.70;99.90;;;;;;4773838;29;20204;-75
2022/10/07 05:18:23;;;;;;;15.40;9.47;;;6.70;99.90;;;;;;4774522;30;20263;-83
2022/10/07 05:20:51;;;;;;;16.40;9.50;;;6.70;99.90;;;;;;4774048;30;20214;-84
2022/10/07 05:23:20;;;;;;;14.83;9.33;;;6.70;99.90;;;;;;4773580;30;20654;-81
2022/10/07 05:26:03;;;;;;;16.83;9.97;;;6.70;99.90;;;;;;4774563;30;20215;-81
2022/10/07 05:28:31;;;;;;;17.97;10.00;;;6.70;99.90;;;;;;4774737;30;20228;-81
2022/10/07 05:31:09;;;;;;;17.97;10.37;;;6.80;99.90;;;;;;4773814;30;20201;-84
2022/10/07 05:33:37;;;;;;;17.00;9.80;;;6.80;99.90;;;;;;4774086;30;20213;-79
2022/10/07 05:36:06;;;;;;;19.13;10.13;;;6.80;99.90;;;;;;4789802;29;20200;-83
2022/10/07 05:38:34;;;;;;;17.37;9.67;;;6.90;99.90;;;;;;4773890;30;20216;-79
2022/10/07 05:41:03;;;;;;;18.23;10.50;;;6.90;99.90;;;;;;4788204;29;20559;-82
2022/10/07 05:43:36;;;;;;;21.30;10.37;;;7.00;99.90;;;;;;4773193;30;20216;-82
2022/10/07 05:46:12;;;;;;;18.03;10.47;;;7.00;99.90;;;;;;4773358;30;20234;-76
2022/10/07 05:48:39;;;;;;;16.90;10.37;;;7.10;99.90;;;;;;4773492;30;20221;-81
2022/10/07 05:51:07;;;;;;;20.97;10.53;;;7.20;99.90;;;;;;4789116;30;20229;-84
2022/10/07 05:53:40;;;;;;;17.10;9.80;;;7.20;99.90;;;;;;4772464;29;20249;-85
2022/10/07 05:56:16;;;;;;;16.33;10.23;;;7.30;99.90;;;;;;4789279;30;20262;-85
2022/10/07 05:58:45;;;;;;;17.87;10.17;;;7.40;99.90;;;;;;4768924;30;20256;-84
2022/10/07 06:47:52;;;;;;;17.10;9.57;;;9.10;99.90;;;;;;4767257;30;20221;-81
2022/10/07 06:51:07;;;;;;;18.33;9.80;;;9.30;99.90;;;;;;4763617;24;20317;-72
2022/10/07 06:53:34;;;;;;;20.47;9.90;;;9.40;99.90;;;;;;4786177;29;20216;-73
2022/10/07 06:56:09;;;;;;;16.43;10.43;;;9.50;99.90;;;;;;4798605;29;20203;-74
2022/10/07 06:58:36;;;;;;;21.60;10.80;;;9.60;99.90;;;;;;4775203;29;20206;-74
2022/10/07 07:01:04;;;;;;;20.43;11.17;;;9.70;99.90;;;;;;4797872;29;20220;-73
2022/10/07 07:03:34;;;;;;;17.83;10.83;;;9.80;99.90;;;;;;4769528;30;20224;-79
2022/10/07 07:06:29;;;;;;;19.47;10.67;;;9.90;99.90;;;;;;4764875;30;20295;-78
2022/10/07 07:08:59;;;;;;;22.10;10.43;;;10.00;99.90;;;;;;4770328;30;20293;-77
2022/10/07 07:27:18;;;;;;;13.80;9.37;;;10.80;99.90;;;;;;4989666;24;20240;-75
2022/10/07 07:30:58;;;;;;;16.40;9.73;;;10.90;99.90;;;;;;4871806;24;20211;-80
2022/10/07 07:33:26;;;;;;;14.83;9.37;;;11.10;99.90;;;;;;4795176;29;20216;-75
2022/10/07 07:35:56;;;;;;;15.47;9.20;;;11.10;99.90;;;;;;4787682;29;20231;-78
2022/10/07 07:38:38;;;;;;;17.93;9.40;;;11.30;99.90;;;;;;4764536;30;20584;-85
2022/10/07 07:41:06;;;;;;;16.37;9.80;;;11.30;99.90;;;;;;4771754;30;20216;-81
2022/10/07 07:43:33;;;;;;;17.27;10.53;;;11.50;99.90;;;;;;4771628;30;20212;-80
2022/10/07 07:46:01;;;;;;;16.57;10.20;;;11.60;99.90;;;;;;4788363;30;20196;-81
2022/10/07 07:48:29;;;;;;;17.53;9.97;;;11.70;99.90;;;;;;4785096;30;20248;-76
2022/10/07 07:50:59;;;;;;;15.57;10.10;;;11.80;99.90;;;;;;4773184;30;20204;-79
2022/10/07 07:53:26;;;;;;;15.67;10.17;;;11.90;99.90;;;;;;4781605;29;20231;-78
2022/10/07 07:56:09;;;;;;;21.60;10.47;;;12.00;99.90;;;;;;4780170;24;20260;-79
2022/10/07 07:58:36;;;;;;;18.70;10.30;;;12.40;99.90;;;;;;4751933;30;20209;-77
2022/10/07 08:01:12;;;;;;;15.37;9.10;;;13.40;99.90;;;;;;4751909;30;20727;-78
2022/10/07 08:04:14;;;;;;;15.23;8.97;;;14.40;99.90;;;;;;4750274;30;20295;-80
2022/10/07 08:13:01;;;;;;;14.50;7.73;;;16.70;99.90;;;;;;5257931;24;20266;-81
2022/10/07 08:22:16;;;;;;;9.03;5.10;;;17.40;99.90;;;;;;4874409;24;20240;-78
2022/10/07 08:24:58;;;;;;;8.20;5.07;;;17.80;99.90;;;;;;4755063;30;20208;-80
2022/10/07 08:27:48;;;;;;;13.33;5.07;;;17.80;99.90;;;;;;4780068;29;20232;-81
2022/10/07 08:30:15;;;;;;;14.17;4.90;;;18.00;99.90;;;;;;4771309;30;20291;-82
2022/10/07 08:32:41;;;;;;;8.30;4.17;;;18.40;99.90;;;;;;4767132;30;20261;-79
2022/10/07 08:38:38;;;;;;;8.33;4.00;;;18.60;99.90;;;;;;5066373;24;20229;-85
2022/10/07 08:41:08;;;;;;;9.53;3.87;;;18.70;99.90;;;;;;4788944;29;20561;-76
2022/10/07 08:43:40;;;;;;;9.27;4.30;;;19.00;99.90;;;;;;4805352;29;20608;-81
2022/10/07 08:46:12;;;;;;;10.23;4.10;;;19.20;99.90;;;;;;4796899;29;20240;-81
2022/10/07 08:48:41;;;;;;;10.70;4.30;;;19.50;99.90;;;;;;4801655;29;20230;-79
2022/10/07 08:51:29;;;;;;;12.23;4.03;;;19.40;99.90;;;;;;4774754;30;20204;-79
2022/10/07 08:54:00;;;;;;;9.37;3.90;;;19.70;99.90;;;;;;4787605;29;20199;-79
2022/10/07 08:56:30;;;;;;;11.63;4.10;;;20.00;99.90;;;;;;4788218;29;20208;-80
2022/10/07 08:59:27;;;;;;;10.43;3.83;;;20.40;99.90;;;;;;4802183;29;20200;-77
2022/10/07 09:02:43;;;;;;;10.97;3.93;;;20.60;99.90;;;;;;4795746;29;20200;-78
2022/10/07 09:05:25;;;;;;;8.27;3.90;;;20.80;99.90;;;;;;4786163;29;20203;-82
2022/10/07 09:07:59;;;;;;;7.03;3.50;;;20.90;99.90;;;;;;4782185;29;20227;-78
2022/10/07 09:10:58;;;;;;;6.67;3.30;;;21.40;99.90;;;;;;4797271;29;20566;-80
2022/10/07 09:14:38;;;;;;;6.70;2.90;;;21.40;99.90;;;;;;4733871;30;20321;-80
2022/10/07 09:17:28;;;;;;;9.53;2.80;;;21.10;99.90;;;;;;4668533;30;20216;-78
2022/10/07 09:20:23;;;;;;;5.73;2.60;;;21.10;99.90;;;;;;4661761;30;20212;-81
2022/10/07 09:22:56;;;;;;;6.90;2.77;;;21.40;99.90;;;;;;4683144;30;20290;-79
2022/10/07 09:25:33;;;;;;;5.90;2.87;;;21.50;99.90;;;;;;4682083;30;20216;-80
2022/10/07 09:28:24;;;;;;;7.07;2.97;;;21.80;99.90;;;;;;4664130;30;20216;-78
2022/10/07 09:30:51;;;;;;;4.97;2.80;;;21.90;99.90;;;;;;4664531;30;20689;-79
2022/10/07 09:33:21;;;;;;;6.67;2.70;;;22.20;99.90;;;;;;4675546;30;20236;-81
2022/10/07 09:36:05;;;;;;;8.80;3.00;;;22.10;99.90;;;;;;4661931;30;20200;-79
2022/10/07 09:38:46;;;;;;;6.17;2.80;;;21.80;99.90;;;;;;4683435;30;20232;-78
2022/10/07 09:41:24;;;;;;;7.07;2.90;;;22.20;99.90;;;;;;4677476;30;20215;-80
2022/10/07 09:44:03;;;;;;;6.73;2.70;;;22.40;99.90;;;;;;4665971;30;20231;-79
2022/10/07 09:46:58;;;;;;;5.57;2.77;;;22.40;99.90;;;;;;4683669;30;20213;-80
2022/10/07 09:49:28;;;;;;;6.33;2.40;;;22.70;99.90;;;;;;4671446;30;20697;-76
2022/10/07 09:51:59;;;;;;;4.73;2.60;;;23.10;99.80;;;;;;4772906;29;20713;-78
2022/10/07 09:54:27;;;;;;;4.63;2.03;;;22.60;99.70;;;;;;4796518;29;20215;-76
2022/10/07 09:56:56;;;;;;;3.60;1.87;;;22.70;99.80;;;;;;4786545;29;20201;-76
2022/10/07 09:59:35;;;;;;;5.73;2.20;;;22.60;99.00;;;;;;4787083;29;20195;-78
2022/10/07 10:02:14;;;;;;;3.77;1.90;;;22.80;97.60;;;;;;4800004;29;20214;-78
2022/10/07 10:04:51;;;;;;;4.33;1.63;;;22.70;98.20;;;;;;4778862;29;20216;-76
2022/10/07 10:07:46;;;;;;;5.07;1.70;;;22.70;97.30;;;;;;4780292;30;20331;-88
2022/10/07 10:10:25;;;;;;;6.83;2.30;;;23.00;97.60;;;;;;4782703;29;20200;-74
2022/10/07 10:12:55;;;;;;;5.07;2.00;;;23.10;96.60;;;;;;4789489;29;20239;-79
2022/10/07 10:19:28;;;;;;;5.80;2.13;;;24.10;95.70;;;;;;4787759;29;20207;-73
2022/10/07 10:22:02;;;;;;;7.37;2.07;;;24.40;94.80;;;;;;4773965;29;20228;-75
2022/10/07 10:27:46;;;;;;;5.70;2.37;;;24.90;93.60;;;;;;4790524;29;20212;-72
2022/10/07 10:30:22;;;;;;;5.15;2.28;;;24.90;92.60;;;;;;4785569;29;20542;-74
2022/10/07 10:33:08;;;;;;;3.30;1.80;;;25.10;92.20;;;;;;4775128;29;20668;-74
2022/10/07 10:36:08;;;;;;;5.35;1.73;;;25.40;91.70;;;;;;4779068;29;20195;-76
2022/10/07 10:39:02;;;;;;;4.60;1.90;;;25.60;88.80;;;;;;4779126;29;20584;-74
2022/10/07 10:42:05;;;;;;;2.70;1.63;;;25.20;86.30;;;;;;4780573;30;20295;-75
2022/10/07 10:44:52;;;;;;;3.43;1.57;;;23.90;89.10;;;;;;4795910;29;21013;-74
2022/10/07 10:47:40;;;;;;;2.67;1.60;;;24.10;88.70;;;;;;4779199;29;20220;-73
2022/10/07 10:50:40;;;;;;;3.38;1.60;;;24.50;88.40;;;;;;4784849;29;20208;-74
2022/10/07 10:53:36;;;;;;;3.43;1.93;;;25.00;88.40;;;;;;4778669;29;20599;-75
2022/10/07 10:56:33;;;;;;;3.85;1.67;;;25.50;85.90;;;;;;4802023;29;20200;-75
2022/10/07 10:59:27;;;;;;;4.40;1.70;;;25.30;83.30;;;;;;4781761;29;20288;-75
2022/10/07 11:02:07;;;;;;;3.35;1.38;;;25.30;82.40;;;;;;4790973;29;20215;-74
2022/10/07 11:05:06;;;;;;;4.57;1.60;;;25.30;82.70;;;;;;4773423;29;20219;-76
2022/10/07 11:07:42;;;;;;;3.35;1.85;;;25.20;81.50;;;;;;4769550;29;20741;-78
2022/10/07 11:10:21;;;;;;;2.60;1.50;;;25.00;82.10;;;;;;4794325;29;20253;-75
2022/10/07 11:16:05;;;;;;;4.78;1.60;;;25.60;81.30;;;;;;4759234;30;20675;-77
2022/10/07 11:18:47;;;;;;;7.55;1.85;;;25.80;82.40;;;;;;4751312;30;20270;-76
2022/10/07 11:21:44;;;;;;;4.70;1.85;;;25.90;80.60;;;;;;4750715;30;20235;-77
2022/10/07 11:24:42;;;;;;;4.65;1.58;;;26.40;78.40;;;;;;4751217;30;20660;-79
2022/10/07 11:27:26;;;;;;;3.72;1.67;;;27.00;78.80;;;;;;4749724;30;20205;-76
2022/10/07 11:30:07;;;;;;;3.35;1.75;;;27.30;75.60;;;;;;4746461;30;20227;-76
2022/10/07 11:32:43;;;;;;;2.65;1.55;;;28.10;74.40;;;;;;4736251;30;20225;-76
2022/10/07 11:35:22;;;;;;;3.22;1.50;;;28.90;73.30;;;;;;4741109;30;20212;-79
2022/10/07 11:38:14;;;;;;;5.68;2.00;;;29.40;70.80;;;;;;4733615;30;20217;-78
2022/10/07 11:40:47;;;;;;;3.53;1.90;;;28.80;67.00;;;;;;4745380;30;20229;-79
2022/10/07 11:43:32;;;;;;;3.92;1.80;;;27.80;67.80;;;;;;4735052;30;20210;-77
2022/10/07 11:46:47;;;;;;;3.40;1.67;;;27.10;70.90;;;;;;4903532;24;20205;-77
2022/10/07 11:50:04;;;;;;;4.18;2.13;;;27.30;71.50;;;;;;4700853;30;20280;-76
2022/10/07 11:52:37;;;;;;;3.22;1.90;;;28.30;69.30;;;;;;4700731;30;20325;-77
2022/10/07 11:55:09;;;;;;;5.15;1.90;;;28.80;67.30;;;;;;4709978;30;20227;-75
2022/10/07 11:57:42;;;;;;;3.13;1.73;;;29.40;67.10;;;;;;4715585;30;20611;-79
2022/10/07 12:00:27;;;;;;;3.53;1.80;;;29.80;64.50;;;;;;4697038;30;20248;-78
2022/10/07 12:02:55;;;;;;;3.00;1.98;;;29.80;64.80;;;;;;4696791;30;20625;-77
2022/10/07 12:05:35;;;;;;;5.15;1.90;;;29.50;64.50;;;;;;4718355;30;20221;-80
2022/10/07 12:15:55;;;;;;;3.80;2.00;;;30.20;61.70;;;;;;4796412;29;20187;-79
2022/10/07 12:22:23;;;;;;;2.75;1.90;;;29.60;62.70;;;;;;5369160;24;20240;-75
2022/10/07 12:27:51;;;;;;;8.13;2.35;;;29.50;61.90;;;;;;4786906;27;20781;-79
2022/10/07 12:30:38;;;;;;;4.00;2.00;;;29.90;60.90;;;;;;4781468;29;20229;-81
2022/10/07 12:33:24;;;;;;;4.45;2.00;;;29.20;61.60;;;;;;4799934;29;20228;-75
2022/10/07 12:35:59;;;;;;;4.32;2.17;;;29.10;62.30;;;;;;4787292;29;20230;-78
2022/10/07 12:39:16;;;;;;;4.93;2.05;;;29.00;62.10;;;;;;4760039;29;20215;-77
2022/10/07 12:41:49;;;;;;;5.38;2.03;;;28.80;62.10;;;;;;4792520;29;20199;-80
2022/10/07 12:47:56;;;;;;;4.90;1.90;;;27.90;62.80;;;;;;4768384;30;20297;-77
2022/10/07 12:50:38;;;;;;;3.45;1.98;;;27.30;63.90;;;;;;4761533;30;20659;-79
2022/10/07 12:53:24;;;;;;;3.33;1.90;;;26.20;66.90;;;;;;4773166;30;20608;-78
2022/10/07 12:55:55;;;;;;;3.47;1.88;;;24.70;71.00;;;;;;4771122;30;20209;-75
2022/10/07 13:02:40;;;;;;;3.20;2.22;;;23.60;75.00;;;;;;4771611;30;20292;-81
2022/10/07 13:05:19;;;;;;;4.37;2.10;;;23.20;77.60;;;;;;4754542;30;20204;-76
2022/10/07 13:11:08;;;;;;;3.20;1.90;;;22.70;80.40;;;;;;4906350;24;20273;-79
2022/10/07 13:23:21;;;;;;;5.10;2.20;;;21.40;85.90;;;;;;4767375;30;20320;-81
2022/10/07 13:26:02;;;;;;;3.57;1.90;;;21.10;86.20;;;;;;4753882;30;20234;-80
2022/10/07 13:28:44;;;;;;;6.43;1.97;;;21.00;86.90;;;;;;4770335;30;20216;-78
2022/10/07 13:31:19;;;;;;;6.37;2.10;;;20.70;88.90;;;;;;4777912;24;20249;-76
2022/10/07 13:34:19;;;;;;;3.70;2.03;;;20.50;89.50;;;;;;4786385;29;20235;-80
2022/10/07 13:36:46;;;;;;;5.23;2.03;;;20.50;89.90;;;;;;4775523;24;20336;-79
2022/10/07 13:50:38;;;;;;;3.83;2.40;;;20.00;91.60;;;;;;4838288;24;20255;-78
2022/10/07 13:53:34;;;;;;;3.00;2.00;;;20.10;92.00;;;;;;4794632;29;20228;-79
2022/10/07 13:56:22;;;;;;;4.50;2.50;;;19.80;92.50;;;;;;4784239;30;20192;-79
2022/10/07 13:58:54;;;;;;;4.40;2.30;;;19.80;93.00;;;;;;4784956;29;20228;-79
2022/10/07 14:08:51;;;;;;;4.37;3.00;;;19.80;94.30;;;;;;4768254;30;20221;-78
2022/10/07 14:11:23;;;;;;;6.70;2.77;;;19.70;95.00;;;;;;4782001;30;20289;-81
2022/10/07 14:14:03;;;;;;;5.03;2.67;;;19.50;95.00;;;;;;4770959;30;20232;-88
2022/10/07 14:16:58;;;;;;;4.87;2.70;;;19.30;95.80;;;;;;4773264;30;20284;-85
2022/10/07 14:19:31;;;;;;;6.07;3.03;;;19.40;96.30;;;;;;4770552;30;20201;-89
2022/10/07 14:22:26;;;;;;;6.13;2.93;;;19.40;96.60;;;;;;4773105;30;20216;-87
2022/10/07 14:25:01;;;;;;;4.70;2.50;;;19.40;96.90;;;;;;4769188;30;20209;-86
2022/10/07 14:27:52;;;;;;;5.97;2.90;;;19.40;97.20;;;;;;4776899;30;20320;-89
2022/10/07 14:36:29;;;;;;;5.07;3.00;;;19.20;98.60;;;;;;4769654;30;20209;-84
2022/10/07 14:41:22;;;;;;;3.87;2.90;;;19.10;99.00;;;;;;4870910;24;20275;-78
2022/10/07 14:50:11;;;;;;;5.37;3.00;;;18.90;99.90;;;;;;4912875;24;20582;-80
2022/10/07 14:58:32;;;;;;;5.90;3.83;;;18.60;99.90;;;;;;4912115;24;20715;-87
2022/10/07 15:01:24;;;;;;;4.53;2.97;;;18.60;99.90;;;;;;4783062;29;20292;-86
2022/10/07 15:03:51;;;;;;;5.27;3.40;;;18.50;99.90;;;;;;4784043;29;20235;-75
2022/10/07 15:06:28;;;;;;;6.20;3.20;;;18.40;99.90;;;;;;4797830;29;20221;-85
2022/10/07 15:09:00;;;;;;;6.90;3.17;;;18.30;99.90;;;;;;4754678;30;20214;-86
2022/10/07 15:11:28;;;;;;;5.90;3.43;;;18.20;99.90;;;;;;4779145;29;20205;-92
2022/10/07 15:14:03;;;;;;;7.67;3.27;;;18.10;99.90;;;;;;4870558;24;20254;-86
2022/10/07 15:16:32;;;;;;;4.63;3.10;;;18.00;99.90;;;;;;4794839;29;20206;-89
2022/10/07 15:19:06;;;;;;;4.07;3.20;;;18.00;99.90;;;;;;4789015;29;20210;-92
2022/10/07 15:21:33;;;;;;;5.90;3.30;;;17.90;99.90;;;;;;4806151;24;20286;-80
2022/10/07 15:24:06;;;;;;;4.43;3.10;;;17.80;99.90;;;;;;4768948;30;20208;-89
2022/10/07 15:26:33;;;;;;;6.67;3.47;;;17.80;99.90;;;;;;4751240;30;20254;-86
2022/10/07 15:29:00;;;;;;;4.30;3.43;;;17.80;99.90;;;;;;4831965;24;20240;-89
2022/10/07 15:31:28;;;;;;;6.37;3.43;;;17.70;99.90;;;;;;4785956;29;20211;-91
2022/10/07 15:34:02;;;;;;;6.53;3.50;;;17.70;99.90;;;;;;4773478;30;20228;-87
2022/10/07 15:36:30;;;;;;;5.33;3.80;;;17.60;99.90;;;;;;4770047;29;20200;-85
2022/10/07 15:39:00;;;;;;;5.73;3.10;;;17.50;99.90;;;;;;4785151;30;20592;-82
2022/10/07 15:53:17;;;;;;;7.53;4.13;;;17.10;99.90;;;;;;1330037;24;20581;-94
2022/10/07 15:55:58;;;;;;;5.60;3.80;;;17.00;99.90;;;;;;4785828;24;20218;-79
2022/10/07 16:05:08;;;;;;;6.00;3.93;;;16.70;99.90;;;;;;4791712;24;20232;-84
2022/10/07 16:07:35;;;;;;;9.23;4.23;;;16.70;99.90;;;;;;4760119;30;20254;-82
2022/10/07 16:10:02;;;;;;;7.43;4.00;;;16.60;99.90;;;;;;4756194;30;20206;-86
2022/10/07 16:12:38;;;;;;;5.60;3.90;;;16.50;99.90;;;;;;4762236;30;20605;-83
2022/10/07 16:15:12;;;;;;;8.03;3.73;;;16.50;99.90;;;;;;4776982;24;20247;-83
2022/10/07 16:18:08;;;;;;;8.43;4.23;;;16.40;99.90;;;;;;4738635;30;20214;-86
2022/10/07 16:24:28;;;;;;;7.03;3.90;;;16.20;99.90;;;;;;4951767;24;20710;-84
2022/10/07 16:27:14;;;;;;;6.53;3.90;;;16.20;99.90;;;;;;4774362;30;20209;-82
2022/10/07 16:32:48;;;;;;;7.17;4.13;;;16.10;99.90;;;;;;4790730;29;20181;-79
2022/10/07 16:35:17;;;;;;;7.07;4.00;;;16.00;99.90;;;;;;4785844;29;20200;-75
2022/10/07 16:37:50;;;;;;;6.70;3.83;;;15.90;99.90;;;;;;4787583;29;20656;-82
2022/10/07 16:41:08;;;;;;;8.13;4.33;;;15.80;99.90;;;;;;4737410;30;20744;-81
2022/10/07 16:43:38;;;;;;;11.13;4.60;;;15.80;99.90;;;;;;4754263;30;20708;-81
2022/10/07 16:49:17;;;;;;;10.50;4.43;;;15.70;99.90;;;;;;4700126;30;20536;-84